Observation data for Snyder on 07/20/2019      Previous  Date       Current Mesonet Observations  Soil Data  Daily Summary Page  Observations in Plain Language
KSYS 200500Z 16013KT 29/14 A2994 RMK A01 T02850144  RH  044%=      5-min Rain = 0
KSYS 200505Z 16013G18KT 28/15 A2994 RMK A01 T02840145  RH  044%=      5-min Rain = 0
KSYS 200510Z 16014KT 28/15 A2994 RMK A01 T02830145  RH  045%=      5-min Rain = 0
KSYS 200515Z 16013KT 28/15 A2994 RMK A01 T02830145  RH  045%=      5-min Rain = 0
KSYS 200520Z 16014KT 28/15 A2994 RMK A01 T02820145  RH  045%=      5-min Rain = 0
KSYS 200525Z 16014KT 28/15 A2994 RMK A01 T02820145  RH  045%=      5-min Rain = 0
KSYS 200530Z 16014KT 28/15 A2994 RMK A01 T02810145  RH  045%=      5-min Rain = 0
KSYS 200535Z 16014G19KT 28/15 A2994 RMK A01 T02790146  RH  046%=      5-min Rain = 0
KSYS 200540Z 16013KT 28/15 A2994 RMK A01 T02780146  RH  046%=      5-min Rain = 0
KSYS 200545Z 16014KT 28/15 A2994 RMK A01 T02780146  RH  047%=      5-min Rain = 0
KSYS 200550Z 16013KT 28/15 A2994 RMK A01 T02770146  RH  047%=      5-min Rain = 0
KSYS 200555Z 16013KT 28/15 A2994 RMK A01 T02760146  RH  047%=      5-min Rain = 0
KSYS 200600Z 16014KT 28/15 A2993 RMK A01 T02760146  RH  047%=      5-min Rain = 0
KSYS 200605Z 16014KT 28/15 A2994 RMK A01 T02760146  RH  047%=      5-min Rain = 0
KSYS 200610Z 16014KT 28/15 A2993 RMK A01 T02760147  RH  047%=      5-min Rain = 0
KSYS 200615Z 16013KT 28/15 A2993 RMK A01 T02750147  RH  048%=      5-min Rain = 0
KSYS 200620Z 16014KT 27/15 A2993 RMK A01 T02730149  RH  049%=      5-min Rain = 0
KSYS 200625Z 16015KT 27/15 A2993 RMK A01 T02720150  RH  050%=      5-min Rain = 0
KSYS 200630Z 16015KT 27/15 A2993 RMK A01 T02710152  RH  050%=      5-min Rain = 0
KSYS 200635Z 16016KT 27/15 A2993 RMK A01 T02700153  RH  051%=      5-min Rain = 0
KSYS 200640Z 16015G20KT 27/15 A2993 RMK A01 T02700153  RH  051%=      5-min Rain = 0
KSYS 200645Z 16015KT 27/15 A2993 RMK A01 T02690154  RH  052%=      5-min Rain = 0
KSYS 200650Z 16014G19KT 27/16 A2993 RMK A01 T02680155  RH  052%=      5-min Rain = 0
KSYS 200655Z 16014KT 27/16 A2993 RMK A01 T02680155  RH  052%=      5-min Rain = 0
KSYS 200700Z 16015KT 27/16 A2993 RMK A01 T02680156  RH  052%=      5-min Rain = 0
KSYS 200705Z 16015KT 27/16 A2993 RMK A01 T02670156  RH  053%=      5-min Rain = 0
KSYS 200710Z 16015G20KT 27/16 A2993 RMK A01 T02660157  RH  053%=      5-min Rain = 0
KSYS 200715Z 16014G19KT 27/16 A2993 RMK A01 T02660158  RH  054%=      5-min Rain = 0
KSYS 200720Z 16016G21KT 27/16 A2993 RMK A01 T02660160  RH  054%=      5-min Rain = 0
KSYS 200725Z 17016KT 27/16 A2993 RMK A01 T02670161  RH  055%=      5-min Rain = 0
KSYS 200730Z 17015G20KT 27/16 A2993 RMK A01 T02660161  RH  055%=      5-min Rain = 0
KSYS 200735Z 17016G23KT 27/16 A2992 RMK A01 T02660162  RH  055%=      5-min Rain = 0
KSYS 200740Z 17014KT 27/16 A2992 RMK A01 T02650163  RH  056%=      5-min Rain = 0
KSYS 200745Z 17013G18KT 26/16 A2992 RMK A01 T02640163  RH  057%=      5-min Rain = 0
KSYS 200750Z 17013G19KT 26/16 A2992 RMK A01 T02620163  RH  057%=      5-min Rain = 0
KSYS 200755Z 17012G17KT 26/16 A2992 RMK A01 T02610163  RH  058%=      5-min Rain = 0
KSYS 200800Z 17012KT 26/16 A2992 RMK A01 T02590163  RH  058%=      5-min Rain = 0
KSYS 200805Z 17012KT 26/16 A2992 RMK A01 T02580163  RH  059%=      5-min Rain = 0
KSYS 200810Z 17011G17KT 26/16 A2992 RMK A01 T02570164  RH  059%=      5-min Rain = 0
KSYS 200815Z 17011KT 26/17 A2992 RMK A01 T02550165  RH  060%=      5-min Rain = 0
KSYS 200820Z 17012KT 26/17 A2992 RMK A01 T02550166  RH  061%=      5-min Rain = 0
KSYS 200825Z 17011G16KT 25/17 A2992 RMK A01 T02540167  RH  061%=      5-min Rain = 0
KSYS 200830Z 17012KT 25/17 A2992 RMK A01 T02540168  RH  062%=      5-min Rain = 0
KSYS 200835Z 17013G19KT 25/17 A2992 RMK A01 T02530169  RH  063%=      5-min Rain = 0
KSYS 200840Z 17012KT 25/17 A2992 RMK A01 T02530170  RH  063%=      5-min Rain = 0
KSYS 200845Z 17012G17KT 25/17 A2992 RMK A01 T02530171  RH  064%=      5-min Rain = 0
KSYS 200850Z 17012KT 25/17 A2992 RMK A01 T02520172  RH  064%=      5-min Rain = 0
KSYS 200855Z 17012KT 25/17 A2992 RMK A01 T02520173  RH  065%=      5-min Rain = 0
KSYS 200900Z 17012G17KT 25/17 A2992 RMK A01 T02510174  RH  065%=      5-min Rain = 0
KSYS 200905Z 17012G17KT 25/18 A2992 RMK A01 T02500175  RH  066%=      5-min Rain = 0
KSYS 200910Z 17012G17KT 25/18 A2993 RMK A01 T02500176  RH  067%=      5-min Rain = 0
KSYS 200915Z 17011KT 25/18 A2993 RMK A01 T02490177  RH  067%=      5-min Rain = 0
KSYS 200920Z 17011KT 25/18 A2993 RMK A01 T02480178  RH  068%=      5-min Rain = 0
KSYS 200925Z 17010G15KT 25/18 A2993 RMK A01 T02470179  RH  069%=      5-min Rain = 0
KSYS 200930Z 17012KT 25/18 A2993 RMK A01 T02470180  RH  070%=      5-min Rain = 0
KSYS 200935Z 17011KT 25/18 A2993 RMK A01 T02470181  RH  070%=      5-min Rain = 0
KSYS 200940Z 17011G17KT 25/18 A2992 RMK A01 T02460181  RH  071%=      5-min Rain = 0
KSYS 200945Z 17011KT 25/18 A2993 RMK A01 T02450182  RH  072%=      5-min Rain = 0
KSYS 200950Z 17011KT 25/18 A2993 RMK A01 T02450183  RH  072%=      5-min Rain = 0
KSYS 200955Z 17010G15KT 24/18 A2993 RMK A01 T02430184  RH  073%=      5-min Rain = 0
KSYS 201000Z 17011KT 24/19 A2993 RMK A01 T02430185  RH  074%=      5-min Rain = 0
KSYS 201005Z 17010KT 24/19 A2993 RMK A01 T02420186  RH  075%=      5-min Rain = 0
KSYS 201010Z 17011KT 24/19 A2993 RMK A01 T02420187  RH  075%=      5-min Rain = 0
KSYS 201015Z 17011G16KT 24/19 A2992 RMK A01 T02420188  RH  076%=      5-min Rain = 0
KSYS 201020Z 17011G16KT 24/19 A2992 RMK A01 T02420189  RH  076%=      5-min Rain = 0
KSYS 201025Z 17012KT 24/19 A2992 RMK A01 T02410189  RH  077%=      5-min Rain = 0
KSYS 201030Z 17013G18KT 24/19 A2992 RMK A01 T02420190  RH  077%=      5-min Rain = 0
KSYS 201035Z 18013KT 24/19 A2992 RMK A01 T02420191  RH  077%=      5-min Rain = 0
KSYS 201040Z 18013KT 24/19 A2993 RMK A01 T02420191  RH  077%=      5-min Rain = 0
KSYS 201045Z 18013G18KT 24/19 A2993 RMK A01 T02420192  RH  078%=      5-min Rain = 0
KSYS 201050Z 17012G17KT 24/19 A2993 RMK A01 T02410192  RH  078%=      5-min Rain = 0
KSYS 201055Z 18011G16KT 24/19 A2993 RMK A01 T02400192  RH  079%=      5-min Rain = 0
KSYS 201100Z 18012KT 24/19 A2993 RMK A01 T02390192  RH  079%=      5-min Rain = 0
KSYS 201105Z 18011KT 24/19 A2993 RMK A01 T02380193  RH  080%=      5-min Rain = 0
KSYS 201110Z 18012KT 24/19 A2993 RMK A01 T02380193  RH  080%=      5-min Rain = 0
KSYS 201115Z 18010KT 24/19 A2993 RMK A01 T02380193  RH  080%=      5-min Rain = 0
KSYS 201120Z 18011KT 24/19 A2993 RMK A01 T02360193  RH  081%=      5-min Rain = 0
KSYS 201125Z 18011G17KT 24/19 A2993 RMK A01 T02350193  RH  082%=      5-min Rain = 0
KSYS 201130Z 18011G16KT 23/19 A2993 RMK A01 T02340193  RH  082%=      5-min Rain = 0
KSYS 201135Z 18012KT 23/19 A2993 RMK A01 T02340193  RH  082%=      5-min Rain = 0
KSYS 201140Z 18010KT 23/19 A2993 RMK A01 T02340193  RH  082%=      5-min Rain = 0
KSYS 201145Z 18011KT 23/19 A2993 RMK A01 T02330193  RH  083%=      5-min Rain = 0
KSYS 201150Z 18010G16KT 23/19 A2993 RMK A01 T02320193  RH  083%=      5-min Rain = 0
KSYS 201155Z 18011KT 23/19 A2993 RMK A01 T02320193  RH  083%=      5-min Rain = 0
KSYS 201200Z 18011G16KT 23/19 A2993 RMK A01 T02320192  RH  083%=      5-min Rain = 0
KSYS 201205Z 18011G16KT 23/19 A2993 RMK A01 T02320192  RH  083%=      5-min Rain = 0
KSYS 201210Z 18012KT 23/19 A2994 RMK A01 T02320192  RH  082%=      5-min Rain = 0
KSYS 201215Z 17010KT 23/19 A2994 RMK A01 T02320192  RH  082%=      5-min Rain = 0
KSYS 201220Z 17012KT 23/19 A2994 RMK A01 T02330192  RH  082%=      5-min Rain = 0
KSYS 201225Z 18011KT 23/19 A2994 RMK A01 T02330192  RH  082%=      5-min Rain = 0
KSYS 201230Z 18011KT 23/19 A2994 RMK A01 T02340192  RH  082%=      5-min Rain = 0
KSYS 201235Z 17009G14KT 23/19 A2994 RMK A01 T02340192  RH  082%=      5-min Rain = 0
KSYS 201240Z 17009KT 23/19 A2994 RMK A01 T02340193  RH  082%=      5-min Rain = 0
KSYS 201245Z 18010KT 24/19 A2994 RMK A01 T02350193  RH  082%=      5-min Rain = 0
KSYS 201250Z 18010G15KT 24/19 A2995 RMK A01 T02370193  RH  081%=      5-min Rain = 0
KSYS 201255Z 18011KT 24/19 A2995 RMK A01 T02390193  RH  080%=      5-min Rain = 0
KSYS 201300Z 17011G16KT 24/19 A2995 RMK A01 T02400193  RH  079%=      5-min Rain = 0
KSYS 201305Z 17012G18KT 24/19 A2995 RMK A01 T02420193  RH  078%=      5-min Rain = 0
KSYS 201310Z 17014G19KT 24/19 A2995 RMK A01 T02430192  RH  077%=      5-min Rain = 0
KSYS 201315Z 17014G19KT 25/19 A2995 RMK A01 T02450192  RH  077%=      5-min Rain = 0
KSYS 201320Z 17014G19KT 25/19 A2995 RMK A01 T02460192  RH  076%=      5-min Rain = 0
KSYS 201325Z 17012KT 25/19 A2995 RMK A01 T02480193  RH  075%=      5-min Rain = 0
KSYS 201330Z 18013G20KT 25/19 A2995 RMK A01 T02510192  RH  074%=      5-min Rain = 0
KSYS 201335Z 18013G19KT 25/19 A2995 RMK A01 T02520193  RH  074%=      5-min Rain = 0
KSYS 201340Z 17013G19KT 25/19 A2995 RMK A01 T02530193  RH  074%=      5-min Rain = 0
KSYS 201345Z 17013G18KT 25/19 A2996 RMK A01 T02540193  RH  073%=      5-min Rain = 0
KSYS 201350Z 17013G18KT 26/19 A2996 RMK A01 T02570194  RH  072%=      5-min Rain = 0
KSYS 201355Z 17016G21KT 26/19 A2995 RMK A01 T02570193  RH  072%=      5-min Rain = 0
KSYS 201400Z 17015G21KT 26/19 A2996 RMK A01 T02580193  RH  071%=      5-min Rain = 0
KSYS 201405Z 18015G21KT 26/19 A2996 RMK A01 T02590192  RH  070%=      5-min Rain = 0
KSYS 201410Z 18014G19KT 26/19 A2996 RMK A01 T02620193  RH  070%=      5-min Rain = 0
KSYS 201415Z 17014G21KT 27/19 A2996 RMK A01 T02650193  RH  068%=      5-min Rain = 0
KSYS 201420Z 17015G20KT 27/19 A2996 RMK A01 T02650192  RH  068%=      5-min Rain = 0
KSYS 201425Z 17015G20KT 27/19 A2996 RMK A01 T02660193  RH  068%=      5-min Rain = 0
KSYS 201430Z 17016G21KT 27/19 A2996 RMK A01 T02670192  RH  067%=      5-min Rain = 0
KSYS 201435Z 17016G21KT 27/19 A2996 RMK A01 T02680191  RH  066%=      5-min Rain = 0
KSYS 201440Z 18014G19KT 27/19 A2996 RMK A01 T02700193  RH  066%=      5-min Rain = 0
KSYS 201445Z 18013G20KT 27/19 A2996 RMK A01 T02740193  RH  065%=      5-min Rain = 0
KSYS 201450Z 17014G19KT 28/19 A2996 RMK A01 T02750193  RH  064%=      5-min Rain = 0
KSYS 201455Z 18014KT 28/19 A2996 RMK A01 T02770193  RH  064%=      5-min Rain = 0
KSYS 201500Z 18013KT 28/19 A2996 RMK A01 T02800193  RH  063%=      5-min Rain = 0
KSYS 201505Z 18013G18KT 28/19 A2996 RMK A01 T02820193  RH  062%=      5-min Rain = 0
KSYS 201510Z 18014G19KT 28/19 A2996 RMK A01 T02820192  RH  061%=      5-min Rain = 0
KSYS 201515Z 18014KT 28/19 A2996 RMK A01 T02830192  RH  061%=      5-min Rain = 0
KSYS 201520Z 17014G20KT 28/19 A2996 RMK A01 T02830191  RH  061%=      5-min Rain = 0
KSYS 201525Z 18013G19KT 29/19 A2996 RMK A01 T02860192  RH  060%=      5-min Rain = 0
KSYS 201530Z 18013G19KT 29/19 A2995 RMK A01 T02880191  RH  059%=      5-min Rain = 0
KSYS 201535Z 18013G19KT 29/19 A2995 RMK A01 T02920192  RH  058%=      5-min Rain = 0
KSYS 201540Z 18013G20KT 29/19 A2995 RMK A01 T02940190  RH  057%=      5-min Rain = 0
KSYS 201545Z 18012G17KT 30/19 A2995 RMK A01 T02950191  RH  057%=      5-min Rain = 0
KSYS 201550Z 17011G16KT 30/19 A2995 RMK A01 T02990193  RH  056%=      5-min Rain = 0
KSYS 201555Z 19013G18KT 30/19 A2995 RMK A01 T03020191  RH  054%=      5-min Rain = 0
KSYS 201600Z 18012G18KT 30/19 A2995 RMK A01 T03000190  RH  055%=      5-min Rain = 0
KSYS 201605Z 17013KT 30/19 A2995 RMK A01 T03020191  RH  054%=      5-min Rain = 0
KSYS 201610Z 17012G18KT 31/19 A2995 RMK A01 T03060190  RH  053%=      5-min Rain = 0
KSYS 201615Z 17013G19KT 31/19 A2995 RMK A01 T03070190  RH  052%=      5-min Rain = 0
KSYS 201620Z 18012G17KT 31/19 A2995 RMK A01 T03090187  RH  051%=      5-min Rain = 0
KSYS 201625Z 19012G18KT 31/19 A2995 RMK A01 T03110187  RH  050%=      5-min Rain = 0
KSYS 201630Z 18014KT 31/19 A2995 RMK A01 T03120187  RH  050%=      5-min Rain = 0
KSYS 201635Z 17012G18KT 31/19 A2995 RMK A01 T03140189  RH  050%=      5-min Rain = 0
KSYS 201640Z 17013G19KT 32/19 A2995 RMK A01 T03170185  RH  048%=      5-min Rain = 0
KSYS 201645Z 18014G19KT 32/18 A2995 RMK A01 T03150184  RH  048%=      5-min Rain = 0
KSYS 201650Z 18011G17KT 32/18 A2995 RMK A01 T03160184  RH  048%=      5-min Rain = 0
KSYS 201655Z 17012G18KT 32/19 A2995 RMK A01 T03180186  RH  048%=      5-min Rain = 0
KSYS 201700Z 18014KT 32/18 A2994 RMK A01 T03210184  RH  046%=      5-min Rain = 0
KSYS 201705Z 18014G20KT 32/18 A2994 RMK A01 T03230182  RH  046%=      5-min Rain = 0
KSYS 201710Z 17013G19KT 33/19 A2994 RMK A01 T03280186  RH  045%=      5-min Rain = 0
KSYS 201715Z 17013KT 33/19 A2994 RMK A01 T03300185  RH  045%=      5-min Rain = 0
KSYS 201720Z 17015G21KT 33/18 A2993 RMK A01 T03290182  RH  044%=      5-min Rain = 0
KSYS 201725Z 18013G20KT 33/18 A2994 RMK A01 T03280184  RH  045%=      5-min Rain = 0
KSYS 201730Z 18012G18KT 33/18 A2994 RMK A01 T03340182  RH  043%=      5-min Rain = 0
KSYS 201735Z 17014G22KT 34/18 A2993 RMK A01 T03380181  RH  042%=      5-min Rain = 0
KSYS 201740Z 17014G21KT 34/18 A2993 RMK A01 T03350182  RH  043%=      5-min Rain = 0
KSYS 201745Z 18013G19KT 34/19 A2993 RMK A01 T03400185  RH  042%=      5-min Rain = 0
KSYS 201750Z 17013G18KT 34/18 A2994 RMK A01 T03430182  RH  041%=      5-min Rain = 0
KSYS 201755Z 16014G22KT 34/18 A2993 RMK A01 T03420183  RH  041%=      5-min Rain = 0
KSYS 201800Z 17015G21KT 34/18 A2993 RMK A01 T03430181  RH  041%=      5-min Rain = 0
KSYS 201805Z 18014G24KT 34/18 A2993 RMK A01 T03430178  RH  040%=      5-min Rain = 0
KSYS 201810Z 18015G22KT 35/18 A2993 RMK A01 T03450177  RH  039%=      5-min Rain = 0
KSYS 201815Z 19013G19KT 35/18 A2993 RMK A01 T03460177  RH  039%=      5-min Rain = 0
KSYS 201820Z 18011G21KT 35/18 A2992 RMK A01 T03510179  RH  038%=      5-min Rain = 0
KSYS 201825Z 17014G19KT 35/18 A2992 RMK A01 T03530180  RH  038%=      5-min Rain = 0
KSYS 201830Z 18013G19KT 35/18 A2992 RMK A01 T03510176  RH  037%=      5-min Rain = 0
KSYS 201835Z 17011G16KT 35/18 A2992 RMK A01 T03520180  RH  038%=      5-min Rain = 0
KSYS 201840Z 17014KT 36/18 A2992 RMK A01 T03550178  RH  037%=      5-min Rain = 0
KSYS 201845Z 17015KT 36/18 A2992 RMK A01 T03550178  RH  037%=      5-min Rain = 0
KSYS 201850Z 17015G22KT 36/18 A2992 RMK A01 T03550177  RH  037%=      5-min Rain = 0
KSYS 201855Z 17014G19KT 36/18 A2992 RMK A01 T03550176  RH  036%=      5-min Rain = 0
KSYS 201900Z 17012G17KT 36/18 A2992 RMK A01 T03580180  RH  037%=      5-min Rain = 0
KSYS 201905Z 17014G20KT 36/18 A2991 RMK A01 T03610175  RH  035%=      5-min Rain = 0
KSYS 201910Z 16014G20KT 36/18 A2991 RMK A01 T03610176  RH  035%=      5-min Rain = 0
KSYS 201915Z 16015G20KT 36/17 A2991 RMK A01 T03610174  RH  035%=      5-min Rain = 0
KSYS 201920Z 16013KT 36/17 A2991 RMK A01 T03620173  RH  035%=      5-min Rain = 0
KSYS 201925Z 17012G17KT 37/18 A2991 RMK A01 T03650176  RH  035%=      5-min Rain = 0
KSYS 201930Z 18012G19KT 37/17 A2991 RMK A01 T03650172  RH  034%=      5-min Rain = 0
KSYS 201935Z 17014G20KT 37/17 A2991 RMK A01 T03660171  RH  033%=      5-min Rain = 0
KSYS 201940Z 15013KT 37/17 A299 RMK A01 T03670171  RH  033%=      5-min Rain = 0
KSYS 201945Z 16013KT 37/17 A299 RMK A01 T03710172  RH  033%=      5-min Rain = 0
KSYS 201950Z 16013G20KT 37/17 A299 RMK A01 T03720172  RH  033%=      5-min Rain = 0
KSYS 201955Z 18013G19KT 37/17 A2989 RMK A01 T03720170  RH  032%=      5-min Rain = 0
KSYS 202000Z 16013G20KT 37/17 A2989 RMK A01 T03720171  RH  032%=      5-min Rain = 0
KSYS 202005Z 17013G19KT 38/17 A2989 RMK A01 T03750168  RH  031%=      5-min Rain = 0
KSYS 202010Z 16013G20KT 38/17 A2989 RMK A01 T03750167  RH  031%=      5-min Rain = 0
KSYS 202015Z 15012KT 38/17 A2989 RMK A01 T03760168  RH  031%=      5-min Rain = 0
KSYS 202020Z 17013G20KT 38/17 A2988 RMK A01 T03790167  RH  030%=      5-min Rain = 0
KSYS 202025Z 15013G19KT 38/16 A2988 RMK A01 T03790164  RH  030%=      5-min Rain = 0
KSYS 202030Z 15014G20KT 38/16 A2988 RMK A01 T03780163  RH  030%=      5-min Rain = 0
KSYS 202035Z 17012G17KT 38/16 A2988 RMK A01 T03780162  RH  029%=      5-min Rain = 0
KSYS 202040Z 16012G17KT 38/16 A2988 RMK A01 T03780162  RH  029%=      5-min Rain = 0
KSYS 202045Z 16014G20KT 38/16 A2988 RMK A01 T03800162  RH  029%=      5-min Rain = 0
KSYS 202050Z 15012G18KT 38/16 A2988 RMK A01 T03800159  RH  028%=      5-min Rain = 0
KSYS 202055Z 16013G21KT 38/16 A2988 RMK A01 T03800160  RH  029%=      5-min Rain = 0
KSYS 202100Z 17013G19KT 38/16 A2987 RMK A01 T03800161  RH  029%=      5-min Rain = 0
KSYS 202105Z 16013G19KT 38/16 A2987 RMK A01 T03810159  RH  028%=      5-min Rain = 0
KSYS 202110Z 15015G23KT 38/16 A2987 RMK A01 T03820158  RH  028%=      5-min Rain = 0
KSYS 202115Z 15013G21KT 38/16 A2987 RMK A01 T03830160  RH  028%=      5-min Rain = 0
KSYS 202120Z 17012G18KT 38/16 A2987 RMK A01 T03840156  RH  027%=      5-min Rain = 0
KSYS 202125Z 17010G18KT 39/16 A2987 RMK A01 T03860158  RH  027%=      5-min Rain = 0
KSYS 202130Z 16011G18KT 39/16 A2986 RMK A01 T03870157  RH  027%=      5-min Rain = 0
KSYS 202135Z 16012G20KT 39/16 A2986 RMK A01 T03870157  RH  027%=      5-min Rain = 0
KSYS 202140Z 17010G15KT 39/16 A2986 RMK A01 T03860158  RH  028%=      5-min Rain = 0
KSYS 202145Z 16012G18KT 39/15 A2986 RMK A01 T03850154  RH  027%=      5-min Rain = 0
KSYS 202150Z 16012G20KT 38/16 A2986 RMK A01 T03840155  RH  027%=      5-min Rain = 0
KSYS 202155Z 17013G19KT 38/16 A2986 RMK A01 T03840156  RH  027%=      5-min Rain = 0
KSYS 202200Z 17013G20KT 38/16 A2986 RMK A01 T03830156  RH  028%=      5-min Rain = 0
KSYS 202205Z 15012G21KT 38/16 A2985 RMK A01 T03840157  RH  028%=      5-min Rain = 0
KSYS 202210Z 16014G19KT 39/16 A2985 RMK A01 T03850155  RH  027%=      5-min Rain = 0
KSYS 202215Z 16014G19KT 38/15 A2985 RMK A01 T03820152  RH  027%=      5-min Rain = 0
KSYS 202220Z 16014KT 38/15 A2985 RMK A01 T03810151  RH  027%=      5-min Rain = 0
KSYS 202225Z 17015G21KT 38/15 A2985 RMK A01 T03820151  RH  027%=      5-min Rain = 0
KSYS 202230Z 17013KT 38/15 A2985 RMK A01 T03810151  RH  027%=      5-min Rain = 0
KSYS 202235Z 17013G18KT 38/15 A2985 RMK A01 T03790151  RH  027%=      5-min Rain = 0
KSYS 202240Z 16013G19KT 38/15 A2985 RMK A01 T03810148  RH  026%=      5-min Rain = 0
KSYS 202245Z 16015G22KT 38/15 A2985 RMK A01 T03810148  RH  026%=      5-min Rain = 0
KSYS 202250Z 15015KT 38/15 A2984 RMK A01 T03810147  RH  026%=      5-min Rain = 0
KSYS 202255Z 15017G23KT 38/15 A2984 RMK A01 T03790147  RH  027%=      5-min Rain = 0
KSYS 202300Z 16015KT 38/15 A2984 RMK A01 T03780147  RH  027%=      5-min Rain = 0
KSYS 202305Z 15015G23KT 38/15 A2984 RMK A01 T03790145  RH  026%=      5-min Rain = 0
KSYS 202310Z 16015G21KT 38/14 A2984 RMK A01 T03770143  RH  026%=      5-min Rain = 0
KSYS 202315Z 16016G22KT 38/14 A2984 RMK A01 T03760144  RH  026%=      5-min Rain = 0
KSYS 202320Z 16015G21KT 38/14 A2984 RMK A01 T03760143  RH  026%=      5-min Rain = 0
KSYS 202325Z 15015G22KT 38/14 A2984 RMK A01 T03760144  RH  026%=      5-min Rain = 0
KSYS 202330Z 16017KT 38/14 A2984 RMK A01 T03760142  RH  026%=      5-min Rain = 0
KSYS 202335Z 17015G22KT 37/14 A2984 RMK A01 T03730141  RH  026%=      5-min Rain = 0
KSYS 202340Z 16015G22KT 37/14 A2984 RMK A01 T03720139  RH  026%=      5-min Rain = 0
KSYS 202345Z 15016G21KT 37/14 A2984 RMK A01 T03720139  RH  026%=      5-min Rain = 0
KSYS 202350Z 16017KT 37/14 A2984 RMK A01 T03710138  RH  026%=      5-min Rain = 0
KSYS 202355Z 16015G20KT 37/14 A2984 RMK A01 T03700138  RH  026%=      5-min Rain = 0
KSYS 210000Z 16016G21KT 37/14 A2984 RMK A01 T03690137  RH  026%=      5-min Rain = 0
KSYS 210005Z 15017G22KT 37/14 A2983 RMK A01 T03670135  RH  026%=      5-min Rain = 0
KSYS 210010Z 15015KT 37/14 A2984 RMK A01 T03660136  RH  026%=      5-min Rain = 0
KSYS 210015Z 15016KT 37/14 A2983 RMK A01 T03660137  RH  026%=      5-min Rain = 0
KSYS 210020Z 16015G20KT 37/14 A2984 RMK A01 T03650136  RH  027%=      5-min Rain = 0
KSYS 210025Z 15017G23KT 36/13 A2983 RMK A01 T03630133  RH  026%=      5-min Rain = 0
KSYS 210030Z 16015G22KT 36/13 A2983 RMK A01 T03620133  RH  027%=      5-min Rain = 0
KSYS 210035Z 15017G24KT 36/13 A2983 RMK A01 T03600132  RH  027%=      5-min Rain = 0
KSYS 210040Z 15017G23KT 36/13 A2983 RMK A01 T03580129  RH  026%=      5-min Rain = 0
KSYS 210045Z 16015G20KT 36/13 A2984 RMK A01 T03560129  RH  027%=      5-min Rain = 0
KSYS 210050Z 16014G19KT 35/13 A2984 RMK A01 T03540129  RH  027%=      5-min Rain = 0
KSYS 210055Z 15015KT 35/13 A2984 RMK A01 T03530127  RH  027%=      5-min Rain = 0
KSYS 210100Z 16018G24KT 35/12 A2984 RMK A01 T03510124  RH  026%=      5-min Rain = 0
KSYS 210105Z 16016G23KT 35/12 A2984 RMK A01 T03500124  RH  027%=      5-min Rain = 0
KSYS 210110Z 16016G22KT 35/12 A2984 RMK A01 T03480124  RH  027%=      5-min Rain = 0
KSYS 210115Z 15015KT 35/12 A2984 RMK A01 T03470124  RH  027%=      5-min Rain = 0
KSYS 210120Z 15016G22KT 35/12 A2984 RMK A01 T03450122  RH  027%=      5-min Rain = 0
KSYS 210125Z 15014KT 34/13 A2984 RMK A01 T03420125  RH  028%=      5-min Rain = 0
KSYS 210130Z 15016KT 34/13 A2984 RMK A01 T03400126  RH  029%=      5-min Rain = 0
KSYS 210135Z 15014G19KT 34/13 A2984 RMK A01 T03390126  RH  029%=      5-min Rain = 0
KSYS 210140Z 15013KT 34/13 A2984 RMK A01 T03360126  RH  029%=      5-min Rain = 0
KSYS 210145Z 15014G19KT 33/13 A2984 RMK A01 T03340126  RH  029%=      5-min Rain = 0
KSYS 210150Z 15014KT 33/13 A2984 RMK A01 T03320126  RH  030%=      5-min Rain = 0
KSYS 210155Z 15013G18KT 33/13 A2984 RMK A01 T03290125  RH  030%=      5-min Rain = 0
KSYS 210200Z 15012KT 33/13 A2985 RMK A01 T03270125  RH  030%=      5-min Rain = 0
KSYS 210205Z 15012KT 33/13 A2985 RMK A01 T03250125  RH  031%=      5-min Rain = 0
KSYS 210210Z 15013KT 32/12 A2985 RMK A01 T03230124  RH  031%=      5-min Rain = 0
KSYS 210215Z 15011KT 32/12 A2985 RMK A01 T03220124  RH  031%=      5-min Rain = 0
KSYS 210220Z 15013KT 32/12 A2985 RMK A01 T03200123  RH  031%=      5-min Rain = 0
KSYS 210225Z 15013KT 32/12 A2985 RMK A01 T03200122  RH  031%=      5-min Rain = 0
KSYS 210230Z 15012KT 32/12 A2986 RMK A01 T03190121  RH  031%=      5-min Rain = 0
KSYS 210235Z 15013KT 32/12 A2986 RMK A01 T03170120  RH  031%=      5-min Rain = 0
KSYS 210240Z 15013KT 32/12 A2986 RMK A01 T03160120  RH  031%=      5-min Rain = 0
KSYS 210245Z 15012KT 32/12 A2986 RMK A01 T03150119  RH  031%=      5-min Rain = 0
KSYS 210250Z 15013KT 31/12 A2986 RMK A01 T03140119  RH  031%=      5-min Rain = 0
KSYS 210255Z 15013KT 31/12 A2987 RMK A01 T03140119  RH  031%=      5-min Rain = 0
KSYS 210300Z 15014G19KT 31/12 A2987 RMK A01 T03140119  RH  032%=      5-min Rain = 0
KSYS 210305Z 15013KT 31/12 A2987 RMK A01 T03130120  RH  032%=      5-min Rain = 0
KSYS 210310Z 15013KT 31/12 A2987 RMK A01 T03120120  RH  032%=      5-min Rain = 0
KSYS 210315Z 15013G18KT 31/12 A2987 RMK A01 T03110120  RH  032%=      5-min Rain = 0
KSYS 210320Z 15013G18KT 31/12 A2988 RMK A01 T03100120  RH  032%=      5-min Rain = 0
KSYS 210325Z 16014KT 31/12 A2988 RMK A01 T03100120  RH  032%=      5-min Rain = 0
KSYS 210330Z 16013G18KT 31/12 A2988 RMK A01 T03100120  RH  033%=      5-min Rain = 0
KSYS 210335Z 16014KT 31/12 A2988 RMK A01 T03090120  RH  033%=      5-min Rain = 0
KSYS 210340Z 16014KT 31/12 A2988 RMK A01 T03090120  RH  033%=      5-min Rain = 0
KSYS 210345Z 16014KT 31/12 A2988 RMK A01 T03080120  RH  033%=      5-min Rain = 0
KSYS 210350Z 16014G19KT 31/12 A2988 RMK A01 T03070120  RH  033%=      5-min Rain = 0
KSYS 210355Z 16013G20KT 31/12 A2988 RMK A01 T03050120  RH  033%=      5-min Rain = 0
KSYS 210400Z 16013KT 30/12 A2989 RMK A01 T03040121  RH  034%=      5-min Rain = 0
KSYS 210405Z 16014KT 30/12 A2989 RMK A01 T03030121  RH  034%=      5-min Rain = 0
KSYS 210410Z 15013G18KT 30/12 A2989 RMK A01 T03020122  RH  034%=      5-min Rain = 0
KSYS 210415Z 16013KT 30/12 A2989 RMK A01 T03000122  RH  035%=      5-min Rain = 0
KSYS 210420Z 15013KT 30/12 A299 RMK A01 T02980123  RH  035%=      5-min Rain = 0
KSYS 210425Z 15012KT 30/12 A299 RMK A01 T02960123  RH  036%=      5-min Rain = 0
KSYS 210430Z 15012KT 29/12 A299 RMK A01 T02940124  RH  036%=      5-min Rain = 0
KSYS 210435Z 15012KT 29/12 A299 RMK A01 T02920124  RH  037%=      5-min Rain = 0
KSYS 210440Z 16012KT 29/12 A299 RMK A01 T02910124  RH  037%=      5-min Rain = 0
KSYS 210445Z 16012KT 29/13 A299 RMK A01 T02910125  RH  037%=      5-min Rain = 0
KSYS 210450Z 16011KT 29/13 A2991 RMK A01 T02890126  RH  038%=      5-min Rain = 0
KSYS 210455Z 16011KT 29/13 A2991 RMK A01 T02880126  RH  038%=      5-min Rain = 0

Page generated in 0.0094 seconds.